createdAt,value
2022-08-25T00:01:37.875Z,76.26
2022-08-25T00:04:11.009Z,76.16
2022-08-25T00:06:38.828Z,76.26
2022-08-25T00:09:06.094Z,76.21
2022-08-25T00:11:35.132Z,76.13
2022-08-25T00:14:07.398Z,76.37
2022-08-25T00:16:34.857Z,76.41
2022-08-25T00:19:06.193Z,76.72
2022-08-25T00:21:32.941Z,76.92
2022-08-25T00:24:02.366Z,77.03
2022-08-25T00:26:30.316Z,77.15
2022-08-25T00:29:01.856Z,77.29
2022-08-25T00:31:38.836Z,77.70
2022-08-25T00:34:09.710Z,77.68
2022-08-25T00:36:37.745Z,77.62
2022-08-25T00:39:06.277Z,77.64
2022-08-25T00:41:35.280Z,77.66
2022-08-25T00:44:06.352Z,77.60
2022-08-25T00:46:37.912Z,77.50
2022-08-25T00:49:14.706Z,77.66
2022-08-25T00:52:24.020Z,77.74
2022-08-25T00:55:08.010Z,77.88
2022-08-25T00:57:43.279Z,78.05
2022-08-25T01:00:19.465Z,77.96
2022-08-25T01:02:46.892Z,77.78
2022-08-25T01:05:13.769Z,77.77
2022-08-25T01:07:43.617Z,77.94
2022-08-25T01:10:13.581Z,77.93
2022-08-25T01:12:41.315Z,78.35
2022-08-25T01:15:10.570Z,78.16
2022-08-25T01:17:46.585Z,78.25
2022-08-25T01:20:14.453Z,78.07
2022-08-25T01:22:41.776Z,78.18
2022-08-25T01:25:39.194Z,77.94
2022-08-25T01:28:06.384Z,77.95
2022-08-25T01:30:33.762Z,77.94
2022-08-25T01:33:04.814Z,77.82
2022-08-25T01:35:32.903Z,77.58
2022-08-25T01:38:01.138Z,77.71
2022-08-25T01:40:28.398Z,77.56
2022-08-25T01:43:07.675Z,77.83
2022-08-25T01:45:35.449Z,77.85
2022-08-25T01:48:03.351Z,77.95
2022-08-25T01:50:30.246Z,78.01
2022-08-25T01:52:59.599Z,78.30
2022-08-25T01:55:27.412Z,78.31
2022-08-25T01:57:54.452Z,78.14
2022-08-25T02:00:22.640Z,78.42
2022-08-25T02:02:53.997Z,78.66
2022-08-25T02:05:23.476Z,78.89
2022-08-25T02:07:50.720Z,79.20
2022-08-25T02:10:17.621Z,79.59
2022-08-25T02:12:44.358Z,79.62
2022-08-25T02:15:11.367Z,79.52
2022-08-25T02:17:38.203Z,79.43
2022-08-25T02:20:08.578Z,79.57
2022-08-25T02:22:35.459Z,79.33
2022-08-25T02:25:02.206Z,79.30
2022-08-25T02:27:29.464Z,79.29
2022-08-25T02:29:56.201Z,79.31
2022-08-25T02:32:22.990Z,79.49
2022-08-25T02:34:49.989Z,79.12
2022-08-25T02:37:16.825Z,79.17
2022-08-25T02:39:43.556Z,79.14
2022-08-25T02:42:10.383Z,79.06
2022-08-25T02:44:37.160Z,79.03
2022-08-25T02:47:04.216Z,79.12
2022-08-25T02:49:32.145Z,79.26
2022-08-25T02:52:00.597Z,79.15
2022-08-25T02:54:28.724Z,79.05
2022-08-25T02:56:55.496Z,79.17
2022-08-25T02:59:22.391Z,79.54
2022-08-25T03:01:49.127Z,79.56
2022-08-25T03:04:15.903Z,79.64
2022-08-25T03:06:43.012Z,80.05
2022-08-25T03:09:10.378Z,80.06
2022-08-25T03:11:38.357Z,80.09
2022-08-25T03:14:09.786Z,80.25
2022-08-25T03:16:37.410Z,80.53
2022-08-25T03:19:05.608Z,80.80
2022-08-25T03:21:32.868Z,81.07
2022-08-25T03:24:00.681Z,81.19
2022-08-25T03:26:45.999Z,81.37
2022-08-25T03:29:13.901Z,81.42
2022-08-25T03:31:40.910Z,81.58
2022-08-25T03:34:07.762Z,81.57
2022-08-25T03:36:34.540Z,81.62
2022-08-25T03:39:01.318Z,81.77
2022-08-25T03:41:30.426Z,82.10
2022-08-25T03:43:57.368Z,82.19
2022-08-25T03:46:30.275Z,82.42
2022-08-25T03:48:58.202Z,82.53
2022-08-25T03:51:29.396Z,82.42
2022-08-25T03:53:57.494Z,82.58
2022-08-25T03:56:24.453Z,82.63
2022-08-25T03:58:51.485Z,82.52
2022-08-25T04:01:18.501Z,82.62
2022-08-25T04:03:46.455Z,82.66
2022-08-25T04:06:13.993Z,82.54
2022-08-25T04:08:40.807Z,82.53
2022-08-25T04:11:10.304Z,82.44
2022-08-25T04:13:37.833Z,82.23
2022-08-25T04:16:11.384Z,82.34
2022-08-25T04:18:38.869Z,82.38
2022-08-25T04:21:06.878Z,82.27
2022-08-25T04:23:34.059Z,81.86
2022-08-25T04:26:01.435Z,81.54
2022-08-25T04:28:29.621Z,80.93
2022-08-25T04:30:56.370Z,79.88
2022-08-25T04:33:23.142Z,76.83
2022-08-25T04:35:50.505Z,74.50
2022-08-25T04:38:17.439Z,72.35
2022-08-25T04:40:44.232Z,69.80
2022-08-25T04:43:11.031Z,66.51
2022-08-25T04:45:39.895Z,64.19
2022-08-25T04:48:07.159Z,62.19
2022-08-25T04:50:34.208Z,60.57
2022-08-25T04:53:01.555Z,59.02
2022-08-25T04:55:28.294Z,56.68
2022-08-25T04:57:55.158Z,54.87
2022-08-25T05:00:21.948Z,53.36
2022-08-25T05:02:48.724Z,51.80
2022-08-25T05:05:16.270Z,53.00
2022-08-25T05:07:42.979Z,52.18
2022-08-25T05:10:09.827Z,51.23
2022-08-25T05:12:36.566Z,49.22
2022-08-25T05:15:24.649Z,50.40
2022-08-25T05:17:55.704Z,46.89
2022-08-25T05:20:24.215Z,49.76
2022-08-25T05:22:51.330Z,51.33
2022-08-25T05:25:18.550Z,53.86
2022-08-25T05:27:45.349Z,53.19
2022-08-25T05:30:12.927Z,51.67
2022-08-25T05:32:39.874Z,50.42
2022-08-25T05:35:07.482Z,48.08
2022-08-25T05:37:34.513Z,47.43
2022-08-25T05:40:01.352Z,46.27
2022-08-25T05:42:29.022Z,46.84
2022-08-25T05:44:55.868Z,43.54
2022-08-25T05:47:22.665Z,45.80
2022-08-25T05:49:49.444Z,45.41
2022-08-25T05:52:18.228Z,43.40
2022-08-25T05:54:47.067Z,42.71
2022-08-25T05:57:14.424Z,41.95
2022-08-25T05:59:41.240Z,44.15
2022-08-25T06:02:26.900Z,45.15
2022-08-25T06:04:53.683Z,46.86
2022-08-25T06:07:21.088Z,45.66
2022-08-25T06:09:49.981Z,44.79
2022-08-25T06:12:18.069Z,44.25
2022-08-25T06:14:45.266Z,41.31
2022-08-25T06:17:12.024Z,38.82
2022-08-25T06:19:39.766Z,40.26
2022-08-25T06:22:08.110Z,38.09
2022-08-25T06:24:35.036Z,43.35
2022-08-25T06:27:02.031Z,46.55
2022-08-25T06:29:29.230Z,44.45
2022-08-25T06:31:56.008Z,42.48
2022-08-25T06:34:24.000Z,41.29
2022-08-25T06:36:51.325Z,39.35
2022-08-25T06:39:18.061Z,38.19
2022-08-25T06:41:44.801Z,41.79
2022-08-25T06:44:12.227Z,41.60
2022-08-25T06:46:39.672Z,41.96
2022-08-25T06:49:06.946Z,40.53
2022-08-25T06:51:36.173Z,41.93
2022-08-25T06:54:05.070Z,42.34
2022-08-25T06:56:32.347Z,41.50
2022-08-25T06:59:01.546Z,40.66
2022-08-25T07:01:28.338Z,38.56
2022-08-25T07:03:59.960Z,37.12
2022-08-25T07:06:29.232Z,37.43
2022-08-25T07:08:56.057Z,36.38
2022-08-25T07:11:22.963Z,36.90
2022-08-25T07:13:50.962Z,35.84
2022-08-25T07:16:20.592Z,37.07
2022-08-25T07:18:48.694Z,35.52
2022-08-25T07:21:15.983Z,35.71
2022-08-25T07:23:42.921Z,37.49
2022-08-25T07:26:33.660Z,37.39
2022-08-25T07:29:00.162Z,37.33
2022-08-25T07:31:29.562Z,36.38
2022-08-25T07:34:15.345Z,36.71
2022-08-25T07:36:44.093Z,36.04
2022-08-25T07:39:11.089Z,38.59
2022-08-25T07:41:40.597Z,40.50
2022-08-25T07:44:10.147Z,42.14
2022-08-25T07:46:37.373Z,39.67
2022-08-25T07:49:05.376Z,38.70
2022-08-25T07:52:04.285Z,39.93
2022-08-25T07:54:33.832Z,41.80
2022-08-25T07:57:02.278Z,41.27
2022-08-25T07:59:29.294Z,40.93
2022-08-25T08:01:56.076Z,39.07
2022-08-25T08:04:22.841Z,39.09
2022-08-25T08:06:49.568Z,39.30
2022-08-25T08:09:16.965Z,39.45
2022-08-25T08:11:53.748Z,40.21
2022-08-25T08:14:20.898Z,39.67
2022-08-25T08:16:48.000Z,37.51
2022-08-25T08:19:15.988Z,37.61
2022-08-25T08:21:43.920Z,37.45
2022-08-25T08:24:25.043Z,37.92
2022-08-25T08:26:59.316Z,37.99
2022-08-25T08:29:26.929Z,39.80
2022-08-25T08:31:53.738Z,39.10
2022-08-25T08:34:24.752Z,40.03
2022-08-25T08:36:52.510Z,41.03
2022-08-25T08:39:19.255Z,41.99
2022-08-25T08:42:18.188Z,43.19
2022-08-25T08:44:44.867Z,41.56
2022-08-25T08:47:27.608Z,41.15
2022-08-25T08:50:21.635Z,40.97
2022-08-25T08:53:08.145Z,40.75
2022-08-25T08:55:48.310Z,41.88
2022-08-25T08:58:26.510Z,42.70
2022-08-25T09:00:56.153Z,42.69
2022-08-25T09:03:40.011Z,43.25
2022-08-25T09:06:12.184Z,42.06
2022-08-25T09:08:44.601Z,40.61
2022-08-25T09:11:39.841Z,42.49
2022-08-25T09:14:22.036Z,42.12
2022-08-25T09:17:06.552Z,42.25
2022-08-25T09:19:41.914Z,42.50
2022-08-25T09:22:42.937Z,41.09
2022-08-25T09:25:39.780Z,42.21
2022-08-25T09:28:30.235Z,43.10
2022-08-25T09:31:02.515Z,43.85
2022-08-25T09:33:34.264Z,46.05
2022-08-25T09:36:04.580Z,45.47
2022-08-25T09:38:33.581Z,46.34
2022-08-25T09:41:03.100Z,47.50
2022-08-25T09:43:52.370Z,48.10
2022-08-25T09:46:28.060Z,46.24
2022-08-25T09:48:59.428Z,45.30
2022-08-25T09:51:42.563Z,46.20
2022-08-25T09:54:12.774Z,45.52
2022-08-25T09:56:55.967Z,44.46
2022-08-25T09:59:34.823Z,44.86
2022-08-25T10:02:02.584Z,45.53
2022-08-25T10:04:40.006Z,45.15
2022-08-25T10:07:32.464Z,43.69
2022-08-25T10:10:02.295Z,43.73
2022-08-25T10:12:42.623Z,44.88
2022-08-25T10:15:15.951Z,45.62
2022-08-25T10:17:56.901Z,44.96
2022-08-25T10:20:33.071Z,44.95
2022-08-25T10:23:11.750Z,44.51
2022-08-25T10:25:57.691Z,44.57
2022-08-25T10:28:38.033Z,43.74
2022-08-25T10:31:15.302Z,42.90
2022-08-25T10:34:06.066Z,43.55
2022-08-25T10:36:47.179Z,43.25
2022-08-25T10:39:36.353Z,42.86
2022-08-25T10:42:25.781Z,43.24
2022-08-25T10:45:41.541Z,43.58
2022-08-25T10:48:13.143Z,43.49
2022-08-25T10:51:18.019Z,43.27
2022-08-25T10:54:19.711Z,44.29
2022-08-25T10:57:01.488Z,44.81
2022-08-25T10:59:34.456Z,43.50
2022-08-25T11:02:19.999Z,42.86
2022-08-25T11:05:09.739Z,42.38
2022-08-25T11:07:45.067Z,41.22
2022-08-25T11:10:17.704Z,41.79
2022-08-25T11:12:59.358Z,40.91
2022-08-25T11:15:37.517Z,42.54
2022-08-25T11:18:13.935Z,42.38
2022-08-25T11:21:12.721Z,40.91
2022-08-25T11:23:49.482Z,40.95
2022-08-25T11:26:31.964Z,40.92
2022-08-25T11:29:16.561Z,40.21
2022-08-25T11:31:54.040Z,39.52
2022-08-25T11:34:22.690Z,42.06
2022-08-25T11:36:55.124Z,41.70
2022-08-25T11:39:41.659Z,41.74
2022-08-25T11:42:23.629Z,40.86
2022-08-25T11:45:12.043Z,39.74
2022-08-25T11:48:01.582Z,39.89
2022-08-25T11:50:35.127Z,40.32
2022-08-25T11:53:11.517Z,40.17
2022-08-25T11:55:38.353Z,42.28
2022-08-25T11:58:24.948Z,40.29
2022-08-25T12:00:53.725Z,40.18
2022-08-25T12:03:32.528Z,39.99
2022-08-25T12:06:21.474Z,38.22
2022-08-25T12:09:00.531Z,38.18
2022-08-25T12:11:52.341Z,40.29
2022-08-25T12:14:22.070Z,40.06
2022-08-25T12:16:51.721Z,40.16
2022-08-25T12:19:41.892Z,41.28
2022-08-25T12:22:09.212Z,41.37
2022-08-25T12:24:47.301Z,41.57
2022-08-25T12:27:24.773Z,40.39
2022-08-25T12:29:53.602Z,40.66
2022-08-25T12:32:57.885Z,40.06
2022-08-25T12:35:55.908Z,39.61
2022-08-25T12:38:51.929Z,40.00
2022-08-25T12:41:27.466Z,40.47
2022-08-25T12:44:35.078Z,39.70
2022-08-25T12:47:32.466Z,40.98
2022-08-25T12:50:28.703Z,40.47
2022-08-25T12:53:08.634Z,40.89
2022-08-25T12:55:37.490Z,38.42
2022-08-25T12:58:06.534Z,39.57
2022-08-25T13:01:01.848Z,40.75
2022-08-25T13:03:46.759Z,39.31
2022-08-25T13:06:29.900Z,39.33
2022-08-25T13:09:24.240Z,41.33
2022-08-25T13:12:07.049Z,41.86
2022-08-25T13:14:40.234Z,41.82
2022-08-25T13:17:09.535Z,41.70
2022-08-25T13:19:37.749Z,42.54
2022-08-25T13:22:16.588Z,40.67
2022-08-25T13:24:45.701Z,41.85
2022-08-25T13:27:28.185Z,40.05
2022-08-25T13:29:58.307Z,39.28
2022-08-25T13:32:32.448Z,40.47
2022-08-25T13:35:25.544Z,39.58
2022-08-25T13:37:55.240Z,39.17
2022-08-25T13:40:30.041Z,39.05
2022-08-25T13:43:05.747Z,38.10
2022-08-25T13:45:41.061Z,39.68
2022-08-25T13:48:22.389Z,40.02
2022-08-25T13:50:52.266Z,40.27
2022-08-25T13:53:26.096Z,40.17
2022-08-25T13:55:58.075Z,41.07
2022-08-25T13:58:44.364Z,39.51
2022-08-25T14:01:22.244Z,40.03
2022-08-25T14:04:20.802Z,40.46
2022-08-25T14:06:48.108Z,39.16
2022-08-25T14:09:18.218Z,39.84
2022-08-25T14:11:58.643Z,40.40
2022-08-25T14:14:25.320Z,40.52
2022-08-25T14:16:52.281Z,41.30
2022-08-25T14:19:23.771Z,40.95
2022-08-25T14:21:56.776Z,41.59
2022-08-25T14:24:23.948Z,40.54
2022-08-25T14:26:54.414Z,40.56
2022-08-25T14:29:22.661Z,39.90
2022-08-25T14:31:51.002Z,40.16
2022-08-25T14:34:25.326Z,39.51
2022-08-25T14:36:55.849Z,41.36
2022-08-25T14:39:22.612Z,40.74
2022-08-25T14:41:52.613Z,41.32
2022-08-25T14:44:20.070Z,40.61
2022-08-25T14:46:55.637Z,40.92
2022-08-25T14:49:29.902Z,41.26
2022-08-25T14:52:07.725Z,41.21
2022-08-25T14:54:37.618Z,40.41
2022-08-25T14:57:04.662Z,41.87
2022-08-25T14:59:35.328Z,41.11
2022-08-25T15:02:02.446Z,40.29
2022-08-25T15:04:30.259Z,41.22
2022-08-25T15:07:02.756Z,40.96
2022-08-25T15:09:33.538Z,39.76
2022-08-25T15:12:00.646Z,40.04
2022-08-25T15:14:28.411Z,39.92
2022-08-25T15:16:59.989Z,40.46
2022-08-25T15:19:27.498Z,40.80
2022-08-25T15:21:54.682Z,40.80
2022-08-25T15:24:26.476Z,39.88
2022-08-25T15:26:59.010Z,40.79
2022-08-25T15:29:29.771Z,40.36
2022-08-25T15:31:58.751Z,40.71
2022-08-25T15:34:25.730Z,40.40
2022-08-25T15:36:52.585Z,40.24
2022-08-25T15:39:20.340Z,40.05
2022-08-25T15:41:54.234Z,40.00
2022-08-25T15:44:24.125Z,40.41
2022-08-25T15:46:53.341Z,39.98
2022-08-25T15:49:24.323Z,39.98
2022-08-25T15:51:55.289Z,40.53
2022-08-25T15:54:26.638Z,40.53
2022-08-25T15:56:56.595Z,41.08
2022-08-25T15:59:24.371Z,42.44
2022-08-25T16:01:54.164Z,41.88
2022-08-25T16:04:26.864Z,42.12
2022-08-25T16:06:54.304Z,41.79
2022-08-25T16:09:23.623Z,42.14
2022-08-25T16:11:56.930Z,42.19
2022-08-25T16:14:27.858Z,41.78
2022-08-25T16:16:58.503Z,42.88
2022-08-25T16:19:28.690Z,42.08
2022-08-25T16:21:56.437Z,42.11
2022-08-25T16:24:23.529Z,42.16
2022-08-25T16:26:51.737Z,42.20
2022-08-25T16:29:19.895Z,42.01
2022-08-25T16:31:53.476Z,43.16
2022-08-25T16:34:24.425Z,42.73
2022-08-25T16:36:52.782Z,43.32
2022-08-25T16:39:20.990Z,43.24
2022-08-25T16:41:48.009Z,42.94
2022-08-25T16:44:15.214Z,43.46
2022-08-25T16:46:44.224Z,43.57
2022-08-25T16:49:13.443Z,43.87
2022-08-25T16:51:40.527Z,44.36
2022-08-25T16:54:27.828Z,45.03
2022-08-25T16:56:55.584Z,45.13
2022-08-25T16:59:23.619Z,45.16
2022-08-25T17:01:51.415Z,45.60
2022-08-25T17:04:18.368Z,45.77
2022-08-25T17:06:49.577Z,45.56
2022-08-25T17:09:22.900Z,45.60
2022-08-25T17:11:54.334Z,45.94
2022-08-25T17:14:21.615Z,46.09
2022-08-25T17:16:50.532Z,46.26
2022-08-25T17:19:17.798Z,46.58
2022-08-25T17:21:46.227Z,46.72
2022-08-25T17:24:14.275Z,46.87
2022-08-25T17:26:42.400Z,47.10
2022-08-25T17:29:09.781Z,47.52
2022-08-25T17:31:40.004Z,47.76
2022-08-25T17:34:10.262Z,47.94
2022-08-25T17:36:37.876Z,49.17
2022-08-25T17:39:09.250Z,50.99
2022-08-25T17:41:37.798Z,51.46
2022-08-25T17:44:05.663Z,51.91
2022-08-25T17:46:32.996Z,52.36
2022-08-25T17:48:59.902Z,52.45
2022-08-25T17:51:26.770Z,52.72
2022-08-25T17:53:57.040Z,53.35
2022-08-25T17:56:25.325Z,53.60
2022-08-25T17:58:55.626Z,53.75
2022-08-25T18:01:25.072Z,53.73
2022-08-25T18:03:53.007Z,54.24
2022-08-25T18:06:21.495Z,54.43
2022-08-25T18:08:51.218Z,54.45
2022-08-25T18:11:20.319Z,55.03
2022-08-25T18:13:47.607Z,55.54
2022-08-25T18:16:17.340Z,56.17
2022-08-25T18:18:44.474Z,56.07
2022-08-25T18:21:16.778Z,56.40
2022-08-25T18:23:44.266Z,56.01
2022-08-25T18:26:13.264Z,56.40
2022-08-25T18:28:43.694Z,56.24
2022-08-25T18:31:13.274Z,56.60
2022-08-25T18:33:44.854Z,56.88
2022-08-25T18:36:13.167Z,57.48
2022-08-25T18:39:02.128Z,57.77
2022-08-25T18:41:35.607Z,57.87
2022-08-25T18:44:03.054Z,58.22
2022-08-25T18:46:29.859Z,57.93
2022-08-25T18:48:56.713Z,57.76
2022-08-25T18:51:23.869Z,57.70
2022-08-25T18:53:54.444Z,57.76
2022-08-25T18:56:25.994Z,58.77
2022-08-25T18:58:52.900Z,59.41
2022-08-25T19:01:21.364Z,60.36
2022-08-25T19:03:48.987Z,60.49
2022-08-25T19:06:16.808Z,60.92
2022-08-25T19:08:44.639Z,60.78
2022-08-25T19:11:12.570Z,61.07
2022-08-25T19:13:40.240Z,61.18
2022-08-25T19:16:35.751Z,60.91
2022-08-25T19:19:04.559Z,61.25
2022-08-25T19:21:35.275Z,61.57
2022-08-25T19:24:03.213Z,61.56
2022-08-25T19:26:30.653Z,61.23
2022-08-25T19:28:57.988Z,61.90
2022-08-25T19:31:25.581Z,63.03
2022-08-25T19:33:54.704Z,63.70
2022-08-25T19:36:24.586Z,62.89
2022-08-25T19:38:58.647Z,62.79
2022-08-25T19:41:27.466Z,63.08
2022-08-25T19:43:57.492Z,62.79
2022-08-25T19:46:36.295Z,62.90
2022-08-25T19:49:11.308Z,63.35
2022-08-25T19:51:40.999Z,63.62
2022-08-25T19:54:16.990Z,64.11
2022-08-25T19:56:54.354Z,65.59
2022-08-25T19:59:40.813Z,66.01
2022-08-25T20:02:29.834Z,67.79
2022-08-25T20:04:59.410Z,68.02
2022-08-25T20:07:30.027Z,68.29
2022-08-25T20:09:58.706Z,68.10
2022-08-25T20:12:27.205Z,68.51
2022-08-25T20:14:55.942Z,67.72
2022-08-25T20:17:24.791Z,67.73
2022-08-25T20:19:58.911Z,68.12
2022-08-25T20:22:27.723Z,68.05
2022-08-25T20:25:00.413Z,67.73
2022-08-25T20:27:35.191Z,67.71
2022-08-25T20:30:04.696Z,67.71
2022-08-25T20:32:33.075Z,67.89
2022-08-25T20:35:01.298Z,67.43
2022-08-25T20:37:28.819Z,67.32
2022-08-25T20:39:55.922Z,67.49
2022-08-25T20:42:22.828Z,67.83
2022-08-25T20:44:49.763Z,68.70
2022-08-25T20:47:20.560Z,68.74
2022-08-25T20:49:47.671Z,68.43
2022-08-25T20:52:15.644Z,68.31
2022-08-25T20:54:47.067Z,68.62
2022-08-25T20:57:16.753Z,68.85
2022-08-25T20:59:43.547Z,68.76
2022-08-25T21:02:10.469Z,68.85
2022-08-25T21:04:40.043Z,69.11
2022-08-25T21:07:17.098Z,69.82
2022-08-25T21:09:43.910Z,70.14
2022-08-25T21:12:10.807Z,69.76
2022-08-25T21:14:40.812Z,69.74
2022-08-25T21:17:10.732Z,70.27
2022-08-25T21:19:39.014Z,70.44
2022-08-25T21:22:07.586Z,70.89
2022-08-25T21:24:34.665Z,71.63
2022-08-25T21:27:03.320Z,71.45
2022-08-25T21:29:32.899Z,71.08
2022-08-25T21:31:59.895Z,71.56
2022-08-25T21:34:28.190Z,72.23
2022-08-25T21:36:57.981Z,73.63
2022-08-25T21:39:27.568Z,73.57
2022-08-25T21:41:59.967Z,74.14
2022-08-25T21:44:27.143Z,74.34
2022-08-25T21:46:54.713Z,74.07
2022-08-25T21:49:23.036Z,74.61
2022-08-25T21:51:59.300Z,75.64
2022-08-25T21:54:28.823Z,75.58
2022-08-25T21:57:04.845Z,75.51
2022-08-25T21:59:34.725Z,76.11
2022-08-25T22:02:05.037Z,76.16
2022-08-25T22:04:32.781Z,76.27
2022-08-25T22:07:00.504Z,76.22
2022-08-25T22:09:28.255Z,76.16
2022-08-25T22:11:55.710Z,76.00
2022-08-25T22:14:24.304Z,76.17
2022-08-25T22:16:54.481Z,75.90
2022-08-25T22:19:22.839Z,75.34
2022-08-25T22:21:51.342Z,75.15
2022-08-25T22:24:18.483Z,75.00
2022-08-25T22:26:47.472Z,74.81
2022-08-25T22:29:14.671Z,75.00
2022-08-25T22:31:53.024Z,75.00
2022-08-25T22:34:20.087Z,74.74
2022-08-25T22:36:59.767Z,74.83
2022-08-25T22:39:27.748Z,75.00
2022-08-25T22:41:54.555Z,75.07
2022-08-25T22:44:23.227Z,75.25
2022-08-25T22:46:50.228Z,75.21
2022-08-25T22:49:17.925Z,74.96
2022-08-25T22:51:44.813Z,75.04
2022-08-25T22:54:15.138Z,75.08
2022-08-25T22:56:42.184Z,75.18
2022-08-25T22:59:12.150Z,75.42
2022-08-25T23:01:39.705Z,76.05
2022-08-25T23:04:07.893Z,76.35
2022-08-25T23:06:35.416Z,76.70
2022-08-25T23:09:05.276Z,76.71
2022-08-25T23:11:32.103Z,76.93
2022-08-25T23:14:05.569Z,76.95
2022-08-25T23:16:33.242Z,77.01
2022-08-25T23:19:00.828Z,76.82
2022-08-25T23:21:46.859Z,77.16
2022-08-25T23:24:29.416Z,77.36
2022-08-25T23:27:01.925Z,77.08
2022-08-25T23:29:30.087Z,76.86
2022-08-25T23:31:58.582Z,76.67
2022-08-25T23:34:26.715Z,77.19
2022-08-25T23:36:56.026Z,77.21
2022-08-25T23:39:22.925Z,77.32
2022-08-25T23:41:50.117Z,77.55
2022-08-25T23:44:18.679Z,77.62
2022-08-25T23:46:47.553Z,77.79
2022-08-25T23:49:18.529Z,77.96
2022-08-25T23:51:51.798Z,78.13
2022-08-25T23:54:20.875Z,78.27
2022-08-25T23:56:52.234Z,77.86
2022-08-25T23:59:24.155Z,77.84
